Lutsen, Minnesota
Current Conditions -  °F | °C
As of 11:34 PM on Monday 26 Jan 2015 (Local Time) from KCKC Reporting Station
Overcast Overcast  
Wind Chill: 18°   Ceiling: 1400
Heat Index: 18°   Visibility: 10mi
Dew Point: 12°   Wind: 3mph
Humidity: 79%   Direction: 350°N
Pressure: 29.93"   Gusts: NA
Location:  47.65°N, 90.68°W
Report Text: KCKC 270534Z AUTO 35003KT 10SM OVC014 M08/M11 A2993 RMK AO2
Loading
Personal Weather Stations






























Interactive Weather Map New forecast layout! Learn more

10-Day Weather Forecast

Advertisements
Track Severe Weather on mobile